ADDS METAR Data INFO
IDs: Format: Raw Decoded Include TAF

Data at: 0923 UTC 13 Dec 2017

KBNO 130913Z AUTO 00000KT 1 1/4SM BR OVC002 M08/M10 A3042 RMK AO2 T10831100
KBNO 130853Z AUTO 00000KT 1 3/4SM BR OVC002 M08/M11 A3042 RMK AO2 SLP352 I3000 T10831106 58004
KBNO 130823Z AUTO 00000KT 1 3/4SM BR OVC002 M09/M11 A3043 RMK AO2 T10891106
KBNO 130753Z AUTO 00000KT 1 1/4SM BR OVC002 M08/M10 A3043 RMK AO2 SLP352 I1000 T10831100 410721106
KBNO 130727Z AUTO 14003KT 1 1/4SM BR OVC002 M08/M10 A3043 RMK AO2 T10831100
KBNO 130653Z AUTO 00000KT 1/2SM FZFG VV002 M08/M09 A3044 RMK AO2 SLP358 I1000 T10831094
KBNO 130553Z AUTO 00000KT 3/4SM BR VV002 M08/M10 A3044 RMK AO2 SLP361 I6000 T10781100 11078 21083 56007
KBNO 130453Z AUTO 00000KT 3/4SM BR VV002 M08/M10 A3045 RMK AO2 SLP364 I1000 T10831100
KBNO 130353Z AUTO 00000KT 3/4SM BR VV002 M08/M10 A3045 RMK AO2 SLP364 T10831100
KBNO 130308Z AUTO 00000KT 3/4SM BR VV002 M08/M09 A3046 RMK AO2 T10831094
KBNO 130301Z AUTO 13003KT 1SM BR VV002 M08/M10 A3046 RMK AO2 T10831100
KBNO 130253Z AUTO 00000KT 3/4SM BR VV002 M08/M09 A3046 RMK AO2 SLP370 T10781094 58006
KBNO 130226Z AUTO 00000KT 3/4SM BR VV002 M08/M10 A3047 RMK AO2 T10781100
KBNO 130207Z AUTO 00000KT 1 3/4SM BR OVC002 M08/M09 A3047 RMK AO2 T10781089
KBNO 130153Z AUTO 00000KT 1SM BR VV002 M08/M09 A3047 RMK AO2 SLP370 T10781094
KBNO 130133Z AUTO 00000KT 3/4SM BR VV002 M08/M09 A3047 RMK AO2 T10781094
KBNO 130122Z AUTO 00000KT 1 1/4SM BR OVC002 M08/M09 A3047 RMK AO2 T10831094
KBNO 130116Z AUTO 00000KT 2SM BR OVC002 M08/M09 A3047 RMK AO2 VIS 1 3/4V3 T10781094
KBNO 130053Z AUTO 00000KT 3SM BR OVC002 M08/M09 A3048 RMK AO2 SLP371 T10781094
KBNO 122353Z AUTO 00000KT 3SM BR OVC002 M08/M09 A3048 RMK AO2 SLP373 T10831094 11072 21100 56015
KBNO 122253Z AUTO 00000KT 10SM OVC003 M08/M09 A3050 RMK AO2 SLP377 T10781089
KBNO 122153Z AUTO 00000KT 10SM OVC003 M08/M09 A3052 RMK AO2 SLP384 T10781089
KBNO 122131Z AUTO 00000KT 10SM OVC003 M07/M09 A3052 RMK AO2 T10721094
KBNO 122053Z AUTO 13003KT 10SM OVC004 M08/M09 A3053 RMK AO2 SLP390 T10781094 58018
KBNO 121953Z AUTO 00000KT 10SM OVC004 M08/M10 A3056 RMK AO2 SLP400 T10781100
KBNO 121918Z AUTO 00000KT 10SM OVC004 M08/M11 A3057 RMK AO2 T10831106
KBNO 121853Z AUTO 00000KT 10SM OVC003 M09/M11 A3057 RMK AO2 SLP406 T10891111
KBNO 121753Z AUTO 00000KT 8SM OVC002 M10/M12 A3059 RMK AO2 SLP418 60000 I6002 T11001117 11078 21106 51004
KBNO 121743Z AUTO 00000KT 5SM BR OVC002 M09/M12 A3059 RMK AO2 T10941117
KBNO 121731Z AUTO 00000KT 2SM BR OVC002 M09/M12 A3059 RMK AO2 T10941117
KBNO 121724Z AUTO 35003KT 1 1/4SM BR OVC002 M09/M12 A3059 RMK AO2 T10941117
KBNO 121653Z AUTO 00000KT 3/4SM BR OVC002 M09/M12 A3059 RMK AO2 SNB29E45 SLP416 P0000 I1000 T10941117
KBNO 121630Z AUTO 04003KT 3/4SM -SN BR OVC002 M10/M12 A3059 RMK AO2 SNB29 P0000 I1000 T11001117
KBNO 121622Z AUTO 01004KT 1 1/2SM BR OVC002 M10/M12 A3059 RMK AO2 I1000 T11001117
KBNO 121553Z AUTO VRB03KT 1/4SM FZFG VV002 M10/M12 A3059 RMK AO2 SLP416 T11001122
KBNO 121530Z AUTO 04004KT 1/4SM FZFG VV002 M10/M12 A3058 RMK AO2 T11001117
KBNO 121517Z AUTO 06004KT 1 1/4SM BR OVC002 M11/M12 A3058 RMK AO2 T11061122
KBNO 121453Z AUTO 04004KT 3/4SM BR VV002 M10/M12 A3058 RMK AO2 SLP417 I3002 T11001117 56004
KBNO 121353Z AUTO 03003KT 1/2SM FZFG VV002 M09/M11 A3058 RMK AO2 SLP415 I1001 T10891106
KBNO 121253Z AUTO 04003KT 3/4SM BR VV002 M08/M10 A3059 RMK AO2 SLP409 I1001 T10831100
KBNO 121153Z AUTO 36003KT 1/2SM FZFG VV002 M08/M10 A3059 RMK AO2 SLP410 60000 I1001 I6002 T10781100 11078 21089 51002
KBNO 121053Z AUTO 01003KT 3/4SM BR VV002 M08/M09 A3059 RMK AO2 SLP405 I1000 T10781094
KBNO 120953Z AUTO 22003KT 1/2SM FZFG VV002 M08/M09 A3059 RMK AO2 SNE0858 SLP407 P0000 T10831094
KBNO 120853Z AUTO 00000KT 1/4SM -SN FZFG VV002 M08/M09 A3059 RMK AO2 SNB41 SLP405 P0000 60000 I1000 I3001 T10831094 50001
KBNO 120753Z AUTO 00000KT 1/2SM FZFG VV002 M08/M09 A3059 RMK AO2 SLP410 I1001 T10831094 410501117
KBNO 120653Z AUTO 19003KT 1/2SM FZFG VV002 M08/M09 A3060 RMK AO2 SLP410 T10831089
KBNO 120553Z AUTO 00000KT 1/2SM FZFG VV002 M09/M09 A3058 RMK AO2 SLP408 T10891089 11061 21117 51004
KBNO 120550Z AUTO 19003KT 1/2SM FZFG VV002 M08/M09 A3058 RMK AO2
KBNO 120540Z AUTO 18004KT 1 1/4SM BR OVC002 M08/M09 A3058 RMK AO2 T10831089
KBNO 120533Z AUTO 00000KT 2 1/2SM BR OVC002 M08/M08 A3058 RMK AO2 VIS 1 3/4V4 T10831083
KBNO 120508Z AUTO 21005KT 1 3/4SM BR OVC002 M08/M09 A3058 RMK AO2 T10831089
KBNO 120453Z AUTO 21007KT 2 1/2SM BR OVC002 M08/M09 A3058 RMK AO2 VIS 2V3 SLP407 T10831089
KBNO 120432Z AUTO 22003KT 9SM OVC003 M09/M09 A3058 RMK AO2 T10891094
KBNO 120418Z AUTO 23004KT 10SM OVC004 M09/M10 A3058 RMK AO2 T10941100
KBNO 120353Z AUTO 00000KT 10SM OVC003 M09/M09 A3057 RMK AO2 SLP406 T10891094
KBNO 120348Z AUTO 00000KT 10SM OVC003 M09/M09 A3057 RMK AO2
KBNO 120253Z AUTO 07005KT 10SM BKN004 M12/M13 A3056 RMK AO2 CIG 004V007 SLP407 T11171128 50004
KBNO 120206Z AUTO 00000KT 10SM BKN009 M11/M12 A3057 RMK AO2 T11111122
KBNO 120153Z AUTO 00000KT 10SM FEW009 M12/M12 A3056 RMK AO2 SLP409 T11171122
KBNO 120125Z AUTO 00000KT 10SM SCT009 M09/M10 A3056 RMK AO2 T10941100
KBNO 120053Z AUTO 07005KT 10SM OVC007 M07/M08 A3056 RMK AO2 SLP400 T10721083
KBNO 112356Z AUTO 07005KT 10SM BKN008 M06/M08 A3055 RMK AO2 CIG 007V010 T10611083
KBNO 112353Z AUTO 07005KT 10SM SCT010 M07/M09 A3054 RMK AO2 SLP392 T10671089 11050 21067 55002
KBNO 112301Z AUTO 09003KT 10SM SCT010 M05/M07 A3053 RMK AO2 T10501072
KBNO 112253Z AUTO 08006KT 10SM BKN010 M05/M07 A3053 RMK AO2 SLP385 T10501072
KBNO 112225Z AUTO 10004KT 10SM OVC010 M05/M07 A3054 RMK AO2 T10501072
KBNO 112153Z AUTO 03004KT 10SM OVC009 M05/M07 A3054 RMK AO2 SLP388 T10501072